createdAt,value
2019-05-20T00:00:53.844Z,97.70
2019-05-20T00:03:22.325Z,97.70
2019-05-20T00:05:50.849Z,97.50
2019-05-20T00:08:19.289Z,97.60
2019-05-20T00:10:47.824Z,98.00
2019-05-20T00:13:16.323Z,97.30
2019-05-20T00:15:44.788Z,97.60
2019-05-20T00:18:13.301Z,97.70
2019-05-20T00:20:41.883Z,97.80
2019-05-20T00:23:10.365Z,97.90
2019-05-20T00:25:38.792Z,97.60
2019-05-20T00:28:07.306Z,97.60
2019-05-20T00:30:35.760Z,97.50
2019-05-20T00:33:04.217Z,97.30
2019-05-20T00:35:32.716Z,97.20
2019-05-20T00:38:01.238Z,97.40
2019-05-20T00:40:29.685Z,97.40
2019-05-20T00:42:58.254Z,97.60
2019-05-20T00:45:26.733Z,97.60
2019-05-20T00:47:55.222Z,97.40
2019-05-20T00:50:23.724Z,96.80
2019-05-20T00:52:52.173Z,96.90
2019-05-20T00:55:24.973Z,97.20
2019-05-20T00:57:53.457Z,97.30
2019-05-20T01:00:22.012Z,97.10
2019-05-20T01:02:56.861Z,97.20
2019-05-20T01:05:20.744Z,97.10
2019-05-20T01:07:49.256Z,96.90
2019-05-20T01:10:17.782Z,96.90
2019-05-20T01:12:46.284Z,96.80
2019-05-20T01:15:15.457Z,96.90
2019-05-20T01:17:43.903Z,96.90
2019-05-20T01:20:12.392Z,96.80
2019-05-20T01:22:40.960Z,96.70
2019-05-20T01:25:09.487Z,96.60
2019-05-20T01:27:38.062Z,96.80
2019-05-20T01:30:10.130Z,96.70
2019-05-20T01:32:38.643Z,96.50
2019-05-20T01:35:07.137Z,96.30
2019-05-20T01:37:35.590Z,96.40
2019-05-20T01:40:04.281Z,96.60
2019-05-20T01:42:32.857Z,96.50
2019-05-20T01:45:01.386Z,96.50
2019-05-20T01:47:29.833Z,96.30
2019-05-20T01:49:58.400Z,96.40
2019-05-20T01:52:26.847Z,96.50
2019-05-20T01:54:55.347Z,96.40
2019-05-20T01:57:23.794Z,96.40
2019-05-20T01:59:52.308Z,96.50
2019-05-20T02:02:20.818Z,97.00
2019-05-20T02:04:49.266Z,96.60
2019-05-20T02:07:17.720Z,96.60
2019-05-20T02:09:46.217Z,96.80
2019-05-20T02:12:14.657Z,96.60
2019-05-20T02:14:47.537Z,96.40
2019-05-20T02:17:16.030Z,96.40
2019-05-20T02:19:44.545Z,96.40
2019-05-20T02:22:13.013Z,96.40
2019-05-20T02:24:41.481Z,96.70
2019-05-20T02:27:10.104Z,96.70
2019-05-20T02:29:38.608Z,96.50
2019-05-20T02:32:07.052Z,96.50
2019-05-20T02:34:35.501Z,96.50
2019-05-20T02:37:04.011Z,96.50
2019-05-20T02:39:32.449Z,96.50
2019-05-20T02:42:00.897Z,96.70
2019-05-20T02:44:29.405Z,96.60
2019-05-20T02:46:57.854Z,96.70
2019-05-20T02:49:26.346Z,96.80
2019-05-20T02:51:54.850Z,96.70
2019-05-20T02:54:23.303Z,96.60
2019-05-20T02:56:51.750Z,96.80
2019-05-20T02:59:20.240Z,97.20
2019-05-20T03:01:49.792Z,97.00
2019-05-20T03:04:18.363Z,97.00
2019-05-20T03:06:46.814Z,97.00
2019-05-20T03:09:15.266Z,97.20
2019-05-20T03:11:43.770Z,97.10
2019-05-20T03:14:12.217Z,97.00
2019-05-20T03:16:40.670Z,97.10
2019-05-20T03:19:09.173Z,97.00
2019-05-20T03:21:37.628Z,97.10
2019-05-20T03:24:06.085Z,97.10
2019-05-20T03:26:34.606Z,97.30
2019-05-20T03:29:03.134Z,97.30
2019-05-20T03:31:31.590Z,97.30
2019-05-20T03:34:00.145Z,97.50
2019-05-20T03:36:28.586Z,97.40
2019-05-20T03:38:57.082Z,97.20
2019-05-20T03:41:25.529Z,97.40
2019-05-20T03:43:53.989Z,97.40
2019-05-20T03:46:22.486Z,97.30
2019-05-20T03:48:50.930Z,97.20
2019-05-20T03:51:19.384Z,97.40
2019-05-20T03:53:47.875Z,97.20
2019-05-20T03:56:16.323Z,97.30
2019-05-20T03:58:44.810Z,97.10
2019-05-20T04:01:13.319Z,97.40
2019-05-20T04:03:41.809Z,97.20
2019-05-20T04:06:10.320Z,97.10
2019-05-20T04:08:38.874Z,97.10
2019-05-20T04:11:07.398Z,97.20
2019-05-20T04:13:35.851Z,97.20
2019-05-20T04:16:04.334Z,97.30
2019-05-20T04:18:32.794Z,97.10
2019-05-20T04:21:01.286Z,97.10
2019-05-20T04:23:29.801Z,97.10
2019-05-20T04:25:58.358Z,97.30
2019-05-20T04:28:26.803Z,97.30
2019-05-20T04:30:55.247Z,97.40
2019-05-20T04:33:23.736Z,97.40
2019-05-20T04:35:52.230Z,97.40
2019-05-20T04:38:20.674Z,97.30
2019-05-20T04:40:49.178Z,97.30
2019-05-20T04:43:17.627Z,97.30
2019-05-20T04:45:46.076Z,97.20
2019-05-20T04:48:14.569Z,97.30
2019-05-20T04:50:43.044Z,97.50
2019-05-20T04:53:11.469Z,97.50
2019-05-20T04:55:39.969Z,97.30
2019-05-20T04:58:08.422Z,97.40
2019-05-20T05:00:51.621Z,97.10
2019-05-20T05:03:20.334Z,97.40
2019-05-20T05:05:49.716Z,97.30
2019-05-20T05:08:22.027Z,97.40
2019-05-20T05:10:50.481Z,97.40
2019-05-20T05:13:19.011Z,97.90
2019-05-20T05:15:47.570Z,97.40
2019-05-20T05:18:16.017Z,97.40
2019-05-20T05:20:44.465Z,97.30
2019-05-20T05:23:13.049Z,97.20
2019-05-20T05:25:41.502Z,97.10
2019-05-20T05:28:09.948Z,97.30
2019-05-20T05:30:38.618Z,97.20
2019-05-20T05:33:07.052Z,97.10
2019-05-20T05:35:35.576Z,97.10
2019-05-20T05:38:04.183Z,97.20
2019-05-20T05:40:32.829Z,97.00
2019-05-20T05:43:01.704Z,97.00
2019-05-20T05:45:33.830Z,97.00
2019-05-20T05:48:02.353Z,97.00
2019-05-20T05:50:30.803Z,97.10
2019-05-20T05:52:59.881Z,96.80
2019-05-20T05:55:28.366Z,96.70
2019-05-20T05:57:58.290Z,96.80
2019-05-20T06:00:26.910Z,96.80
2019-05-20T06:02:55.468Z,97.00
2019-05-20T06:05:23.997Z,96.80
2019-05-20T06:07:52.852Z,96.80
2019-05-20T06:10:21.268Z,96.70
2019-05-20T06:12:49.772Z,96.80
2019-05-20T06:15:21.157Z,96.60
2019-05-20T06:17:49.678Z,96.70
2019-05-20T06:20:19.886Z,96.70
2019-05-20T06:22:48.338Z,96.70
2019-05-20T06:25:16.829Z,96.70
2019-05-20T06:27:45.302Z,96.50
2019-05-20T06:30:14.024Z,96.60
2019-05-20T06:32:42.549Z,97.00
2019-05-20T06:35:12.197Z,96.60
2019-05-20T06:37:42.294Z,96.30
2019-05-20T06:40:11.274Z,96.30
2019-05-20T06:42:40.717Z,96.30
2019-05-20T06:45:09.548Z,96.50
2019-05-20T06:47:39.847Z,96.40
2019-05-20T06:50:08.342Z,96.20
2019-05-20T06:52:37.997Z,96.10
2019-05-20T06:55:07.782Z,96.20
2019-05-20T06:57:36.325Z,96.10
2019-05-20T07:00:07.585Z,96.00
2019-05-20T07:02:36.181Z,95.90
2019-05-20T07:05:06.778Z,96.10
2019-05-20T07:07:35.235Z,96.20
2019-05-20T07:10:05.270Z,96.10
2019-05-20T07:12:41.324Z,96.20
2019-05-20T07:15:06.505Z,96.40
2019-05-20T07:17:34.999Z,96.30
2019-05-20T07:20:04.285Z,96.20
2019-05-20T07:22:32.793Z,95.90
2019-05-20T07:25:01.621Z,96.10
2019-05-20T07:27:30.472Z,96.00
2019-05-20T07:29:58.973Z,96.00
2019-05-20T07:32:27.413Z,96.00
2019-05-20T07:34:55.865Z,96.10
2019-05-20T07:37:24.521Z,95.80
2019-05-20T07:39:52.943Z,96.10
2019-05-20T07:42:21.451Z,96.00
2019-05-20T07:44:49.898Z,96.20
2019-05-20T07:47:18.354Z,96.20
2019-05-20T07:49:46.973Z,96.40
2019-05-20T07:52:15.406Z,96.30
2019-05-20T07:54:44.194Z,96.30
2019-05-20T07:57:12.690Z,96.20
2019-05-20T07:59:41.136Z,96.00
2019-05-20T08:02:09.600Z,96.00
2019-05-20T08:04:38.220Z,96.40
2019-05-20T08:07:26.040Z,96.10
2019-05-20T08:09:42.784Z,96.30
2019-05-20T08:12:06.999Z,96.30
2019-05-20T08:14:35.440Z,96.30
2019-05-20T08:17:03.935Z,96.30
2019-05-20T08:19:32.429Z,96.10
2019-05-20T08:22:00.954Z,96.30
2019-05-20T08:24:29.442Z,95.90
2019-05-20T08:26:57.894Z,95.70
2019-05-20T08:29:26.436Z,95.80
2019-05-20T08:31:55.029Z,95.50
2019-05-20T08:34:25.476Z,95.10
2019-05-20T08:36:53.701Z,95.20
2019-05-20T08:39:22.186Z,95.20
2019-05-20T08:41:50.649Z,95.60
2019-05-20T08:44:19.280Z,94.90
2019-05-20T08:46:47.799Z,94.80
2019-05-20T08:49:16.286Z,95.10
2019-05-20T08:51:44.905Z,95.00
2019-05-20T08:54:13.359Z,94.80
2019-05-20T08:56:41.802Z,94.90
2019-05-20T08:59:11.882Z,94.70
2019-05-20T09:01:40.404Z,95.10
2019-05-20T09:04:08.925Z,94.90
2019-05-20T09:06:37.466Z,95.50
2019-05-20T09:09:07.420Z,94.70
2019-05-20T09:11:36.883Z,94.40
2019-05-20T09:14:05.389Z,94.60
2019-05-20T09:16:33.969Z,94.30
2019-05-20T09:19:02.485Z,94.10
2019-05-20T09:21:30.999Z,94.30
2019-05-20T09:23:59.554Z,94.00
2019-05-20T09:26:27.968Z,93.90
2019-05-20T09:28:56.474Z,94.00
2019-05-20T09:31:25.095Z,94.00
2019-05-20T09:33:55.380Z,93.90
2019-05-20T09:36:25.913Z,93.70
2019-05-20T09:38:54.127Z,94.00
2019-05-20T09:41:22.645Z,93.90
2019-05-20T09:43:52.282Z,94.10
2019-05-20T09:46:20.910Z,93.90
2019-05-20T09:48:49.499Z,93.70
2019-05-20T09:51:19.743Z,93.90
2019-05-20T09:53:48.149Z,93.90
2019-05-20T09:56:16.790Z,93.70
2019-05-20T09:58:45.388Z,93.60
2019-05-20T10:01:13.801Z,93.60
2019-05-20T10:03:42.313Z,93.00
2019-05-20T10:06:10.822Z,93.30
2019-05-20T10:08:44.778Z,93.00
2019-05-20T10:11:09.466Z,92.70
2019-05-20T10:13:37.970Z,92.50
2019-05-20T10:16:06.413Z,92.70
2019-05-20T10:18:37.792Z,93.20
2019-05-20T10:21:05.168Z,92.80
2019-05-20T10:23:33.679Z,92.20
2019-05-20T10:26:02.101Z,91.30
2019-05-20T10:28:32.448Z,92.10
2019-05-20T10:31:01.941Z,91.40
2019-05-20T10:33:30.404Z,91.80
2019-05-20T10:35:58.974Z,91.50
2019-05-20T10:38:27.478Z,91.90
2019-05-20T10:40:55.936Z,91.80
2019-05-20T10:43:24.423Z,92.00
2019-05-20T10:45:52.865Z,92.20
2019-05-20T10:48:21.380Z,91.70
2019-05-20T10:50:49.876Z,91.70
2019-05-20T10:53:18.329Z,91.00
2019-05-20T10:55:46.829Z,91.20
2019-05-20T10:58:15.359Z,91.60
2019-05-20T11:01:01.046Z,91.80
2019-05-20T11:03:14.101Z,91.20
2019-05-20T11:05:43.094Z,91.20
2019-05-20T11:08:11.580Z,91.20
2019-05-20T11:10:40.148Z,91.20
2019-05-20T11:13:08.612Z,91.40
2019-05-20T11:15:37.061Z,91.30
2019-05-20T11:18:05.709Z,91.40
2019-05-20T11:20:34.160Z,91.20
2019-05-20T11:23:02.620Z,91.60
2019-05-20T11:25:31.105Z,91.70
2019-05-20T11:27:59.612Z,91.40
2019-05-20T11:30:28.127Z,91.50
2019-05-20T11:32:56.575Z,91.60
2019-05-20T11:35:25.147Z,91.60
2019-05-20T11:37:53.600Z,91.60
2019-05-20T11:40:22.109Z,91.70
2019-05-20T11:42:50.694Z,91.70
2019-05-20T11:45:19.334Z,91.60
2019-05-20T11:47:47.760Z,91.60
2019-05-20T11:50:16.404Z,91.60
2019-05-20T11:52:45.128Z,91.50
2019-05-20T11:55:13.760Z,90.70
2019-05-20T11:57:42.564Z,91.20
2019-05-20T12:00:11.650Z,90.70
2019-05-20T12:02:40.170Z,90.70
2019-05-20T12:05:08.894Z,90.60
2019-05-20T12:07:37.506Z,90.90
2019-05-20T12:10:08.034Z,90.10
2019-05-20T12:12:38.636Z,91.00
2019-05-20T12:15:08.475Z,91.10
2019-05-20T12:17:37.309Z,91.10
2019-05-20T12:20:08.409Z,91.30
2019-05-20T12:22:37.852Z,91.00
2019-05-20T12:25:07.297Z,91.10
2019-05-20T12:27:35.861Z,90.70
2019-05-20T12:30:05.106Z,90.30
2019-05-20T12:32:33.553Z,90.20
2019-05-20T12:35:02.081Z,90.40
2019-05-20T12:37:32.292Z,90.70
2019-05-20T12:40:07.097Z,91.10
2019-05-20T12:42:30.813Z,91.00
2019-05-20T12:44:59.422Z,91.00
2019-05-20T12:47:29.656Z,91.40
2019-05-20T12:49:58.120Z,91.20
2019-05-20T12:52:26.579Z,91.30
2019-05-20T12:55:07.095Z,91.70
2019-05-20T12:57:25.169Z,91.60
2019-05-20T12:59:53.619Z,91.10
2019-05-20T13:02:22.069Z,91.20
2019-05-20T13:04:50.553Z,91.20
2019-05-20T13:07:19.046Z,91.50
2019-05-20T13:09:47.530Z,91.50
2019-05-20T13:12:16.024Z,91.40
2019-05-20T13:14:44.473Z,91.90
2019-05-20T13:17:13.098Z,91.40
2019-05-20T13:19:41.605Z,91.60
2019-05-20T13:22:10.050Z,91.70
2019-05-20T13:24:38.498Z,92.00
2019-05-20T13:27:06.996Z,92.20
2019-05-20T13:29:35.511Z,92.10
2019-05-20T13:32:04.025Z,92.30
2019-05-20T13:34:32.513Z,92.50
2019-05-20T13:37:01.020Z,92.40
2019-05-20T13:39:29.473Z,92.50
2019-05-20T13:41:57.920Z,92.10
2019-05-20T13:44:26.497Z,91.90
2019-05-20T13:46:54.986Z,92.10
2019-05-20T13:49:23.444Z,92.30
2019-05-20T13:51:52.039Z,92.50
2019-05-20T13:54:20.502Z,92.50
2019-05-20T13:56:48.969Z,92.30
2019-05-20T13:59:19.023Z,92.30
2019-05-20T14:01:47.508Z,92.60
2019-05-20T14:04:17.404Z,92.60
2019-05-20T14:06:45.894Z,92.40
2019-05-20T14:09:14.473Z,92.40
2019-05-20T14:11:43.042Z,92.50
2019-05-20T14:14:14.190Z,92.50
2019-05-20T14:16:41.606Z,92.60
2019-05-20T14:19:10.117Z,92.70
2019-05-20T14:21:38.632Z,93.00
2019-05-20T14:24:07.085Z,93.20
2019-05-20T14:26:35.546Z,93.30
2019-05-20T14:29:04.060Z,93.00
2019-05-20T14:31:32.573Z,92.90
2019-05-20T14:34:01.108Z,92.80
2019-05-20T14:36:39.538Z,92.70
2019-05-20T14:38:59.905Z,92.90
2019-05-20T14:41:28.419Z,92.40
2019-05-20T14:43:57.346Z,92.50
2019-05-20T14:46:25.863Z,92.40
2019-05-20T14:48:54.353Z,92.60
2019-05-20T14:51:22.871Z,92.50
2019-05-20T14:53:51.557Z,92.50
2019-05-20T14:56:20.136Z,92.70
2019-05-20T14:58:48.625Z,92.00
2019-05-20T15:01:17.076Z,92.20
2019-05-20T15:03:45.585Z,92.60
2019-05-20T15:06:14.076Z,92.10
2019-05-20T15:08:42.762Z,92.00
2019-05-20T15:11:12.105Z,92.00
2019-05-20T15:13:40.596Z,91.80
2019-05-20T15:16:09.093Z,92.20
2019-05-20T15:18:37.536Z,92.20
2019-05-20T15:21:06.004Z,92.10
2019-05-20T15:23:34.517Z,91.90
2019-05-20T15:26:02.984Z,91.80
2019-05-20T15:28:31.417Z,92.00
2019-05-20T15:30:59.916Z,91.80
2019-05-20T15:33:28.414Z,91.90
2019-05-20T15:35:56.857Z,91.80
2019-05-20T15:38:25.373Z,92.10
2019-05-20T15:40:53.865Z,91.70
2019-05-20T15:43:22.324Z,91.90
2019-05-20T15:45:50.788Z,91.90
2019-05-20T15:48:19.308Z,92.00
2019-05-20T15:50:47.713Z,92.00
2019-05-20T15:53:16.282Z,92.00
2019-05-20T15:55:44.728Z,92.10
2019-05-20T15:58:13.206Z,92.30
2019-05-20T16:00:41.785Z,92.50
2019-05-20T16:03:10.233Z,92.40
2019-05-20T16:05:38.689Z,92.60
2019-05-20T16:08:07.200Z,92.40
2019-05-20T16:10:35.646Z,92.50
2019-05-20T16:13:04.149Z,92.30
2019-05-20T16:15:32.787Z,92.20
2019-05-20T16:18:01.334Z,92.40
2019-05-20T16:20:29.827Z,92.40
2019-05-20T16:22:58.499Z,92.60
2019-05-20T16:25:26.982Z,92.80
2019-05-20T16:27:55.429Z,92.90
2019-05-20T16:30:23.950Z,92.80
2019-05-20T16:32:52.424Z,92.70
2019-05-20T16:35:20.873Z,92.90
2019-05-20T16:37:49.368Z,93.20
2019-05-20T16:40:17.818Z,93.30
2019-05-20T16:42:46.310Z,93.40
2019-05-20T16:45:17.362Z,93.60
2019-05-20T16:47:45.844Z,93.60
2019-05-20T16:50:14.338Z,93.60
2019-05-20T16:52:42.785Z,93.40
2019-05-20T16:55:11.278Z,93.40
2019-05-20T16:57:39.729Z,93.20
2019-05-20T17:00:27.876Z,93.40
2019-05-20T17:02:38.352Z,93.60
2019-05-20T17:05:07.276Z,93.30
2019-05-20T17:07:35.780Z,93.40
2019-05-20T17:10:06.474Z,93.40
2019-05-20T17:12:34.968Z,93.50
2019-05-20T17:15:03.618Z,93.60
2019-05-20T17:17:32.082Z,93.30
2019-05-20T17:20:00.526Z,93.40
2019-05-20T17:22:29.013Z,93.30
2019-05-20T17:24:57.458Z,93.20
2019-05-20T17:27:26.067Z,93.30
2019-05-20T17:29:54.567Z,93.20
2019-05-20T17:32:23.086Z,93.20
2019-05-20T17:34:51.643Z,93.30
2019-05-20T17:37:20.110Z,93.10
2019-05-20T17:39:48.662Z,93.20
2019-05-20T17:42:17.156Z,93.20
2019-05-20T17:44:45.673Z,93.30
2019-05-20T17:47:14.136Z,93.30
2019-05-20T17:49:42.674Z,93.20
2019-05-20T17:52:11.118Z,93.40
2019-05-20T17:54:39.562Z,93.10
2019-05-20T17:57:08.061Z,93.20
2019-05-20T17:59:36.509Z,93.20
2019-05-20T18:02:06.597Z,93.10
2019-05-20T18:04:35.094Z,93.40
2019-05-20T18:07:04.757Z,93.30
2019-05-20T18:09:34.852Z,93.50
2019-05-20T18:12:03.364Z,93.30
2019-05-20T18:14:31.829Z,93.20
2019-05-20T18:17:00.346Z,93.20
2019-05-20T18:19:28.833Z,93.50
2019-05-20T18:21:57.284Z,93.70
2019-05-20T18:24:25.738Z,93.70
2019-05-20T18:26:54.222Z,93.80
2019-05-20T18:29:22.736Z,93.70
2019-05-20T18:31:51.202Z,93.80
2019-05-20T18:34:19.642Z,93.60
2019-05-20T18:36:48.165Z,93.50
2019-05-20T18:39:16.618Z,93.50
2019-05-20T18:41:45.073Z,93.70
2019-05-20T18:44:13.580Z,93.60
2019-05-20T18:46:42.025Z,93.40
2019-05-20T18:49:10.465Z,93.50
2019-05-20T18:51:38.973Z,93.50
2019-05-20T18:54:07.417Z,93.40
2019-05-20T18:56:35.929Z,93.60
2019-05-20T18:59:04.377Z,93.80
2019-05-20T19:01:47.314Z,94.00
2019-05-20T19:04:02.975Z,94.00
2019-05-20T19:06:31.411Z,93.80
2019-05-20T19:08:59.913Z,93.50
2019-05-20T19:11:28.381Z,93.40
2019-05-20T19:13:56.828Z,93.10
2019-05-20T19:16:25.336Z,93.20
2019-05-20T19:18:53.785Z,93.20
2019-05-20T19:21:22.254Z,92.70
2019-05-20T19:23:50.732Z,92.80
2019-05-20T19:26:25.069Z,92.70
2019-05-20T19:28:49.398Z,92.60
2019-05-20T19:31:17.917Z,92.70
2019-05-20T19:33:46.364Z,92.90
2019-05-20T19:36:14.814Z,92.90
2019-05-20T19:38:43.453Z,92.50
2019-05-20T19:41:11.905Z,92.60
2019-05-20T19:43:40.356Z,92.70
2019-05-20T19:46:08.850Z,92.70
2019-05-20T19:48:37.297Z,93.00
2019-05-20T19:51:05.749Z,93.00
2019-05-20T19:53:34.241Z,93.10
2019-05-20T19:56:02.741Z,93.10
2019-05-20T19:58:31.210Z,93.30
2019-05-20T20:00:59.712Z,93.40
2019-05-20T20:03:28.222Z,93.50
2019-05-20T20:05:56.661Z,93.40
2019-05-20T20:08:25.188Z,93.40
2019-05-20T20:10:53.701Z,93.40
2019-05-20T20:13:22.158Z,93.30
2019-05-20T20:15:50.617Z,93.40
2019-05-20T20:18:19.107Z,93.30
2019-05-20T20:20:47.624Z,93.30
2019-05-20T20:23:16.077Z,93.40
2019-05-20T20:25:44.526Z,93.40
2019-05-20T20:28:13.074Z,93.10
2019-05-20T20:30:41.481Z,93.20
2019-05-20T20:33:09.937Z,93.70
2019-05-20T20:35:38.605Z,93.40
2019-05-20T20:38:07.090Z,93.30
2019-05-20T20:40:35.584Z,93.50
2019-05-20T20:43:04.033Z,93.30
2019-05-20T20:45:32.521Z,93.40
2019-05-20T20:48:00.971Z,93.00
2019-05-20T20:50:29.473Z,93.10
2019-05-20T20:52:57.926Z,93.30
2019-05-20T20:55:26.369Z,93.40
2019-05-20T20:57:54.860Z,93.40
2019-05-20T21:00:23.317Z,93.40
2019-05-20T21:02:53.696Z,93.30
2019-05-20T21:05:21.996Z,93.10
2019-05-20T21:07:51.794Z,93.10
2019-05-20T21:10:20.457Z,93.10
2019-05-20T21:12:48.907Z,92.90
2019-05-20T21:15:17.419Z,92.80
2019-05-20T21:17:45.912Z,93.20
2019-05-20T21:20:14.425Z,93.30
2019-05-20T21:22:43.089Z,93.20
2019-05-20T21:25:11.612Z,92.90
2019-05-20T21:27:40.066Z,92.60
2019-05-20T21:30:09.293Z,92.80
2019-05-20T21:32:37.788Z,92.90
2019-05-20T21:35:06.346Z,92.70
2019-05-20T21:37:34.789Z,92.30
2019-05-20T21:40:03.290Z,92.50
2019-05-20T21:42:31.742Z,92.50
2019-05-20T21:45:00.192Z,92.50
2019-05-20T21:47:28.677Z,92.70
2019-05-20T21:49:57.133Z,92.90
2019-05-20T21:52:25.629Z,93.10
2019-05-20T21:54:54.079Z,92.80
2019-05-20T21:57:22.530Z,92.40
2019-05-20T21:59:51.030Z,92.30
2019-05-20T22:02:19.478Z,92.50
2019-05-20T22:04:47.939Z,92.50
2019-05-20T22:07:16.430Z,92.90
2019-05-20T22:09:44.873Z,93.00
2019-05-20T22:12:13.329Z,92.80
2019-05-20T22:14:41.809Z,92.50
2019-05-20T22:17:10.298Z,92.60
2019-05-20T22:19:38.736Z,92.70
2019-05-20T22:22:25.114Z,92.50
2019-05-20T22:24:53.583Z,92.90
2019-05-20T22:27:22.089Z,93.00
2019-05-20T22:29:50.547Z,92.80
2019-05-20T22:32:19.043Z,92.90
2019-05-20T22:34:53.777Z,93.10
2019-05-20T22:37:17.632Z,93.00
2019-05-20T22:39:46.073Z,93.30
2019-05-20T22:42:14.656Z,93.20
2019-05-20T22:44:43.133Z,93.00
2019-05-20T22:47:11.558Z,92.90
2019-05-20T22:49:40.048Z,92.60
2019-05-20T22:52:08.492Z,92.40
2019-05-20T22:54:37.003Z,92.50
2019-05-20T22:57:05.478Z,92.70
2019-05-20T22:59:34.002Z,92.70
2019-05-20T23:02:02.529Z,92.80
2019-05-20T23:04:30.985Z,92.80
2019-05-20T23:06:59.428Z,92.40
2019-05-20T23:09:27.920Z,92.90
2019-05-20T23:11:56.414Z,93.10
2019-05-20T23:14:25.437Z,92.80
2019-05-20T23:16:53.881Z,92.80
2019-05-20T23:19:22.371Z,93.10
2019-05-20T23:21:50.857Z,93.00
2019-05-20T23:24:19.311Z,92.90
2019-05-20T23:26:47.763Z,93.00
2019-05-20T23:29:16.256Z,93.20
2019-05-20T23:31:44.697Z,93.10
2019-05-20T23:34:13.484Z,93.10
2019-05-20T23:36:42.038Z,93.20
2019-05-20T23:39:10.482Z,93.00
2019-05-20T23:41:38.973Z,92.90
2019-05-20T23:44:07.429Z,93.00
2019-05-20T23:46:35.888Z,93.20
2019-05-20T23:49:04.386Z,93.30
2019-05-20T23:51:32.832Z,93.30
2019-05-20T23:54:01.276Z,93.10
2019-05-20T23:56:29.781Z,93.00
2019-05-20T23:58:58.229Z,93.00
